Apple Grove, North Carolina
Current Conditions -  °F | °C
As of 9:15 AM on Thursday 18 Dec 2014 (Local Time) from KGEV Reporting Station
Overcast Overcast  
Wind Chill:   Ceiling: 8000
Heat Index:   Visibility: 10mi
Dew Point: -13°   Wind: 3mph
Humidity: 35%   Direction: 10°N
Pressure: 30.1"   Gusts: NA
Location:  36.524°N, 81.538°W
Report Text: KGEV 181415Z AUTO 01003KT 10SM OVC080 01/M13 A3010 RMK AO2 T00121128
Loading
Personal Weather Stations






























Interactive Weather Map New forecast layout! Learn more

10-Day Weather Forecast

Advertisements
Track Severe Weather on mobile